Sarasota Bradenton International Airport
KSRQ : rendu visible

Aérodrome :











RETROUVEZ-NOUS SUR...

 
LOGIN :

S'inscrire | Disclaimer

   EN    FR    IT 

 









Légende :    VFR   VFR Marginal   IFR   IFR Intensif   IFR Très Intensif
Visi : 
Plafond : 
>= 8 km
>= 3000ft
5 à 8 km
1000 à 3000 ft
1500m à 5 km
500 à 1000 ft
800 à 1500m
200 à 500 ft
< 800m
< 200 ft
Symboles :   Orages  Brouillard  Fortes neiges  Fortes précipitations  Vent > 20 kt






- Altitude de l'aérodrome : 30 ft
- Code IATA : SRQ


KSRQ - Sarasota Bradenton International

DERNIER METAR :
  • 201553Z 02010KT 10SM CLR 24/08 A3014 RMK AO2 SLP206 T02440078

METARs EXPIRÉS :
  • 201453Z 05007KT 10SM CLR 23/12 A3014 RMK AO2 SLP207 T02280117 51017
  • 201353Z 06003KT 10SM CLR 20/14 A3013 RMK AO2 SLP203 T02000139

TAF KSRQ
Valide du 20 à 12h jusqu'au 21 à 12h UTC


201125Z 2012/2112 VRB03KT P6SM SKC
FM201500 36007KT P6SM SKC
FM201800 33008KT P6SM SKC
FM210100 03004KT P6SM SKC



MET'MAP, la Météo Aéronautique d'un coup d'oeil ! - Copyright ORBIFLY Décembre 2007 - Disclaimer

ORBIFLY MET'MAP TEAM :

Programmation & Développement : Alexandra Zaïnal
Conception & Développement : Baudouin d'Aumeries
Co-Programmation & Développement : Marc-Olivier Méhu
Soutien technique & logistique : Manuel Goepfert

Contact : metmap@orbifly.com




SOURCES & CREDITS :

   NOAA       Earth
Advisory